sensor_id;sensor_type;location;lat;lon;timestamp;P1;durP1;ratioP1;P2;durP2;ratioP2
65328;SDS011;51941;52.210;5.158;2024-03-25T00:01:36;11.75;;;1.23;;
65328;SDS011;51941;52.210;5.158;2024-03-25T00:04:02;11.13;;;1.80;;
65328;SDS011;51941;52.210;5.158;2024-03-25T00:06:28;7.28;;;1.50;;
65328;SDS011;51941;52.210;5.158;2024-03-25T00:08:58;5.20;;;0.95;;
65328;SDS011;51941;52.210;5.158;2024-03-25T00:11:25;7.38;;;1.73;;
65328;SDS011;51941;52.210;5.158;2024-03-25T00:13:51;11.18;;;2.13;;
65328;SDS011;51941;52.210;5.158;2024-03-25T00:16:19;9.02;;;1.08;;
65328;SDS011;51941;52.210;5.158;2024-03-25T00:18:45;6.57;;;1.05;;
65328;SDS011;51941;52.210;5.158;2024-03-25T00:21:11;15.10;;;2.33;;
65328;SDS011;51941;52.210;5.158;2024-03-25T00:23:37;6.65;;;1.08;;
65328;SDS011;51941;52.210;5.158;2024-03-25T00:26:04;5.15;;;1.38;;
65328;SDS011;51941;52.210;5.158;2024-03-25T00:28:30;7.47;;;1.15;;
65328;SDS011;51941;52.210;5.158;2024-03-25T00:30:57;15.23;;;1.50;;
65328;SDS011;51941;52.210;5.158;2024-03-25T00:33:24;4.90;;;0.88;;
65328;SDS011;51941;52.210;5.158;2024-03-25T00:35:51;4.85;;;0.95;;
65328;SDS011;51941;52.210;5.158;2024-03-25T00:38:17;10.68;;;1.30;;
65328;SDS011;51941;52.210;5.158;2024-03-25T00:40:44;3.83;;;1.20;;
65328;SDS011;51941;52.210;5.158;2024-03-25T00:43:10;5.03;;;1.20;;
65328;SDS011;51941;52.210;5.158;2024-03-25T00:45:37;2.92;;;0.90;;
65328;SDS011;51941;52.210;5.158;2024-03-25T00:48:03;9.45;;;1.67;;
65328;SDS011;51941;52.210;5.158;2024-03-25T00:50:32;7.50;;;1.27;;
65328;SDS011;51941;52.210;5.158;2024-03-25T00:52:58;5.35;;;1.50;;
65328;SDS011;51941;52.210;5.158;2024-03-25T00:55:24;9.70;;;1.35;;
65328;SDS011;51941;52.210;5.158;2024-03-25T00:57:50;7.55;;;0.70;;
65328;SDS011;51941;52.210;5.158;2024-03-25T01:00:17;12.20;;;1.65;;
65328;SDS011;51941;52.210;5.158;2024-03-25T01:02:43;3.17;;;1.52;;
65328;SDS011;51941;52.210;5.158;2024-03-25T01:05:10;6.32;;;1.33;;
65328;SDS011;51941;52.210;5.158;2024-03-25T01:07:38;7.53;;;1.65;;
65328;SDS011;51941;52.210;5.158;2024-03-25T01:10:05;6.70;;;1.63;;
65328;SDS011;51941;52.210;5.158;2024-03-25T01:12:31;6.65;;;2.13;;
65328;SDS011;51941;52.210;5.158;2024-03-25T01:14:58;3.40;;;1.08;;
65328;SDS011;51941;52.210;5.158;2024-03-25T01:17:24;9.68;;;1.60;;
65328;SDS011;51941;52.210;5.158;2024-03-25T01:19:51;6.55;;;1.17;;
65328;SDS011;51941;52.210;5.158;2024-03-25T01:22:16;5.68;;;0.63;;
65328;SDS011;51941;52.210;5.158;2024-03-25T01:24:45;6.68;;;1.40;;
65328;SDS011;51941;52.210;5.158;2024-03-25T01:27:11;2.10;;;0.85;;
65328;SDS011;51941;52.210;5.158;2024-03-25T01:29:37;5.25;;;0.90;;
65328;SDS011;51941;52.210;5.158;2024-03-25T01:32:03;8.27;;;1.60;;
65328;SDS011;51941;52.210;5.158;2024-03-25T01:34:30;5.10;;;1.00;;
65328;SDS011;51941;52.210;5.158;2024-03-25T01:36:56;7.55;;;1.17;;
65328;SDS011;51941;52.210;5.158;2024-03-25T01:39:23;4.70;;;1.02;;
65328;SDS011;51941;52.210;5.158;2024-03-25T01:41:50;4.95;;;1.05;;
65328;SDS011;51941;52.210;5.158;2024-03-25T01:44:17;9.20;;;1.27;;
65328;SDS011;51941;52.210;5.158;2024-03-25T01:46:43;4.82;;;0.93;;
65328;SDS011;51941;52.210;5.158;2024-03-25T01:49:10;3.58;;;1.52;;
65328;SDS011;51941;52.210;5.158;2024-03-25T01:51:36;16.42;;;1.50;;
65328;SDS011;51941;52.210;5.158;2024-03-25T01:54:05;3.95;;;0.77;;
65328;SDS011;51941;52.210;5.158;2024-03-25T01:56:33;5.25;;;1.77;;
65328;SDS011;51941;52.210;5.158;2024-03-25T01:59:02;8.40;;;0.90;;
65328;SDS011;51941;52.210;5.158;2024-03-25T02:01:29;8.35;;;1.95;;
65328;SDS011;51941;52.210;5.158;2024-03-25T02:03:56;3.13;;;0.63;;
65328;SDS011;51941;52.210;5.158;2024-03-25T02:06:22;6.13;;;1.45;;
65328;SDS011;51941;52.210;5.158;2024-03-25T02:08:53;5.25;;;0.70;;
65328;SDS011;51941;52.210;5.158;2024-03-25T02:11:21;3.78;;;0.82;;
65328;SDS011;51941;52.210;5.158;2024-03-25T02:13:49;10.73;;;1.30;;
65328;SDS011;51941;52.210;5.158;2024-03-25T02:16:17;4.85;;;1.15;;
65328;SDS011;51941;52.210;5.158;2024-03-25T02:18:43;4.53;;;1.23;;
65328;SDS011;51941;52.210;5.158;2024-03-25T02:21:09;8.70;;;1.45;;
65328;SDS011;51941;52.210;5.158;2024-03-25T02:23:37;5.07;;;0.98;;
65328;SDS011;51941;52.210;5.158;2024-03-25T02:26:07;4.70;;;0.88;;
65328;SDS011;51941;52.210;5.158;2024-03-25T02:28:34;6.97;;;1.00;;
65328;SDS011;51941;52.210;5.158;2024-03-25T02:31:00;10.25;;;0.95;;
65328;SDS011;51941;52.210;5.158;2024-03-25T02:33:26;10.52;;;1.90;;
65328;SDS011;51941;52.210;5.158;2024-03-25T02:35:52;3.65;;;0.70;;
65328;SDS011;51941;52.210;5.158;2024-03-25T02:38:19;6.45;;;1.30;;
65328;SDS011;51941;52.210;5.158;2024-03-25T02:40:45;8.90;;;0.90;;
65328;SDS011;51941;52.210;5.158;2024-03-25T02:43:13;8.57;;;1.08;;
65328;SDS011;51941;52.210;5.158;2024-03-25T02:45:40;10.10;;;2.00;;
65328;SDS011;51941;52.210;5.158;2024-03-25T02:48:07;8.20;;;1.35;;
65328;SDS011;51941;52.210;5.158;2024-03-25T02:50:33;2.75;;;0.65;;
65328;SDS011;51941;52.210;5.158;2024-03-25T02:52:59;8.60;;;1.33;;
65328;SDS011;51941;52.210;5.158;2024-03-25T02:55:25;2.45;;;0.60;;
65328;SDS011;51941;52.210;5.158;2024-03-25T02:57:52;2.67;;;0.63;;
65328;SDS011;51941;52.210;5.158;2024-03-25T03:00:19;5.63;;;0.93;;
65328;SDS011;51941;52.210;5.158;2024-03-25T03:02:46;4.13;;;0.75;;
65328;SDS011;51941;52.210;5.158;2024-03-25T03:05:12;6.22;;;1.98;;
65328;SDS011;51941;52.210;5.158;2024-03-25T03:07:38;3.55;;;0.80;;
65328;SDS011;51941;52.210;5.158;2024-03-25T03:10:05;3.72;;;0.75;;
65328;SDS011;51941;52.210;5.158;2024-03-25T03:12:32;6.45;;;0.70;;
65328;SDS011;51941;52.210;5.158;2024-03-25T03:14:57;9.80;;;1.13;;
65328;SDS011;51941;52.210;5.158;2024-03-25T03:17:26;3.22;;;0.82;;
65328;SDS011;51941;52.210;5.158;2024-03-25T03:19:51;2.22;;;0.65;;
65328;SDS011;51941;52.210;5.158;2024-03-25T03:22:18;6.78;;;0.88;;
65328;SDS011;51941;52.210;5.158;2024-03-25T03:24:44;4.28;;;0.55;;
65328;SDS011;51941;52.210;5.158;2024-03-25T03:27:11;2.83;;;1.05;;
65328;SDS011;51941;52.210;5.158;2024-03-25T03:29:36;9.68;;;1.50;;
65328;SDS011;51941;52.210;5.158;2024-03-25T03:32:04;5.80;;;0.88;;
65328;SDS011;51941;52.210;5.158;2024-03-25T03:34:31;7.25;;;0.70;;
65328;SDS011;51941;52.210;5.158;2024-03-25T03:36:58;4.32;;;0.93;;
65328;SDS011;51941;52.210;5.158;2024-03-25T03:39:23;7.18;;;1.63;;
65328;SDS011;51941;52.210;5.158;2024-03-25T03:41:50;4.88;;;0.80;;
65328;SDS011;51941;52.210;5.158;2024-03-25T03:44:16;8.73;;;1.48;;
65328;SDS011;51941;52.210;5.158;2024-03-25T03:46:43;7.63;;;1.15;;
65328;SDS011;51941;52.210;5.158;2024-03-25T03:49:09;4.80;;;1.00;;
65328;SDS011;51941;52.210;5.158;2024-03-25T03:51:37;3.38;;;0.80;;
65328;SDS011;51941;52.210;5.158;2024-03-25T03:54:02;3.42;;;1.05;;
65328;SDS011;51941;52.210;5.158;2024-03-25T03:56:29;5.20;;;1.00;;
65328;SDS011;51941;52.210;5.158;2024-03-25T03:58:55;4.38;;;0.77;;
65328;SDS011;51941;52.210;5.158;2024-03-25T04:01:22;14.43;;;1.08;;
65328;SDS011;51941;52.210;5.158;2024-03-25T04:03:47;1.95;;;0.50;;
65328;SDS011;51941;52.210;5.158;2024-03-25T04:06:14;4.60;;;1.23;;
65328;SDS011;51941;52.210;5.158;2024-03-25T04:08:42;2.63;;;0.82;;
65328;SDS011;51941;52.210;5.158;2024-03-25T04:11:08;3.53;;;1.02;;
65328;SDS011;51941;52.210;5.158;2024-03-25T04:13:35;5.35;;;0.88;;
65328;SDS011;51941;52.210;5.158;2024-03-25T04:16:02;4.32;;;1.15;;
65328;SDS011;51941;52.210;5.158;2024-03-25T04:18:30;6.25;;;1.15;;
65328;SDS011;51941;52.210;5.158;2024-03-25T04:20:58;7.50;;;1.50;;
65328;SDS011;51941;52.210;5.158;2024-03-25T04:23:24;1.63;;;0.90;;
65328;SDS011;51941;52.210;5.158;2024-03-25T04:25:52;8.18;;;1.15;;
65328;SDS011;51941;52.210;5.158;2024-03-25T04:28:18;8.02;;;2.00;;
65328;SDS011;51941;52.210;5.158;2024-03-25T04:30:50;9.02;;;1.02;;
65328;SDS011;51941;52.210;5.158;2024-03-25T04:33:16;3.95;;;1.42;;
65328;SDS011;51941;52.210;5.158;2024-03-25T04:35:44;5.82;;;0.90;;
65328;SDS011;51941;52.210;5.158;2024-03-25T04:38:10;2.80;;;0.50;;
65328;SDS011;51941;52.210;5.158;2024-03-25T04:40:36;6.95;;;1.30;;
65328;SDS011;51941;52.210;5.158;2024-03-25T04:43:06;3.00;;;0.85;;
65328;SDS011;51941;52.210;5.158;2024-03-25T04:45:32;6.65;;;2.08;;
65328;SDS011;51941;52.210;5.158;2024-03-25T04:47:58;7.90;;;1.27;;
65328;SDS011;51941;52.210;5.158;2024-03-25T04:50:24;6.57;;;0.90;;
65328;SDS011;51941;52.210;5.158;2024-03-25T04:52:51;7.90;;;1.27;;
65328;SDS011;51941;52.210;5.158;2024-03-25T04:55:17;9.63;;;1.23;;
65328;SDS011;51941;52.210;5.158;2024-03-25T04:57:43;5.25;;;1.55;;
65328;SDS011;51941;52.210;5.158;2024-03-25T05:00:12;9.07;;;1.90;;
65328;SDS011;51941;52.210;5.158;2024-03-25T05:02:39;6.82;;;1.33;;
65328;SDS011;51941;52.210;5.158;2024-03-25T05:05:05;8.75;;;1.83;;
65328;SDS011;51941;52.210;5.158;2024-03-25T05:07:31;5.13;;;1.50;;
65328;SDS011;51941;52.210;5.158;2024-03-25T05:09:57;4.32;;;2.22;;
65328;SDS011;51941;52.210;5.158;2024-03-25T05:12:23;4.82;;;1.30;;
65328;SDS011;51941;52.210;5.158;2024-03-25T05:14:49;4.28;;;1.13;;
65328;SDS011;51941;52.210;5.158;2024-03-25T05:17:16;6.57;;;1.00;;
65328;SDS011;51941;52.210;5.158;2024-03-25T05:19:42;4.32;;;1.65;;
65328;SDS011;51941;52.210;5.158;2024-03-25T05:22:08;21.92;;;2.83;;
65328;SDS011;51941;52.210;5.158;2024-03-25T05:24:34;6.93;;;1.70;;
65328;SDS011;51941;52.210;5.158;2024-03-25T05:27:00;12.32;;;1.98;;
65328;SDS011;51941;52.210;5.158;2024-03-25T05:29:26;13.57;;;1.73;;
65328;SDS011;51941;52.210;5.158;2024-03-25T05:31:56;5.53;;;1.42;;
65328;SDS011;51941;52.210;5.158;2024-03-25T05:34:24;7.32;;;2.72;;
65328;SDS011;51941;52.210;5.158;2024-03-25T05:36:52;6.70;;;1.48;;
65328;SDS011;51941;52.210;5.158;2024-03-25T05:39:19;5.07;;;1.73;;
65328;SDS011;51941;52.210;5.158;2024-03-25T05:41:45;7.78;;;1.58;;
65328;SDS011;51941;52.210;5.158;2024-03-25T05:44:12;13.20;;;1.52;;
65328;SDS011;51941;52.210;5.158;2024-03-25T05:46:38;2.97;;;1.17;;
65328;SDS011;51941;52.210;5.158;2024-03-25T05:49:04;4.95;;;1.13;;
65328;SDS011;51941;52.210;5.158;2024-03-25T05:51:31;7.35;;;1.77;;
65328;SDS011;51941;52.210;5.158;2024-03-25T05:54:00;5.95;;;1.25;;
65328;SDS011;51941;52.210;5.158;2024-03-25T05:56:26;8.27;;;1.80;;
65328;SDS011;51941;52.210;5.158;2024-03-25T05:58:52;7.85;;;1.63;;
65328;SDS011;51941;52.210;5.158;2024-03-25T06:01:18;15.38;;;2.22;;
65328;SDS011;51941;52.210;5.158;2024-03-25T06:03:44;5.10;;;1.30;;
65328;SDS011;51941;52.210;5.158;2024-03-25T06:06:10;4.78;;;1.38;;
65328;SDS011;51941;52.210;5.158;2024-03-25T06:08:38;8.15;;;1.83;;
65328;SDS011;51941;52.210;5.158;2024-03-25T06:11:04;7.60;;;1.42;;
65328;SDS011;51941;52.210;5.158;2024-03-25T06:13:30;7.63;;;2.17;;
65328;SDS011;51941;52.210;5.158;2024-03-25T06:15:56;7.03;;;1.55;;
65328;SDS011;51941;52.210;5.158;2024-03-25T06:18:22;5.10;;;1.15;;
65328;SDS011;51941;52.210;5.158;2024-03-25T06:20:48;6.75;;;1.33;;
65328;SDS011;51941;52.210;5.158;2024-03-25T06:23:21;3.83;;;1.38;;
65328;SDS011;51941;52.210;5.158;2024-03-25T06:25:50;6.65;;;1.50;;
65328;SDS011;51941;52.210;5.158;2024-03-25T06:28:16;7.63;;;2.08;;
65328;SDS011;51941;52.210;5.158;2024-03-25T06:30:41;4.22;;;1.52;;
65328;SDS011;51941;52.210;5.158;2024-03-25T06:33:25;6.75;;;1.98;;
65328;SDS011;51941;52.210;5.158;2024-03-25T06:36:11;12.77;;;1.95;;
65328;SDS011;51941;52.210;5.158;2024-03-25T06:38:37;6.97;;;2.00;;
65328;SDS011;51941;52.210;5.158;2024-03-25T06:41:04;13.27;;;2.72;;
65328;SDS011;51941;52.210;5.158;2024-03-25T06:43:30;11.40;;;2.05;;
65328;SDS011;51941;52.210;5.158;2024-03-25T06:45:56;8.45;;;2.15;;
65328;SDS011;51941;52.210;5.158;2024-03-25T06:48:21;9.23;;;2.10;;
65328;SDS011;51941;52.210;5.158;2024-03-25T06:50:54;7.45;;;2.47;;
65328;SDS011;51941;52.210;5.158;2024-03-25T06:53:20;14.50;;;2.03;;
65328;SDS011;51941;52.210;5.158;2024-03-25T06:55:53;6.05;;;1.85;;
65328;SDS011;51941;52.210;5.158;2024-03-25T06:58:22;6.15;;;2.03;;
65328;SDS011;51941;52.210;5.158;2024-03-25T07:00:48;11.75;;;2.40;;
65328;SDS011;51941;52.210;5.158;2024-03-25T07:03:15;10.02;;;1.92;;
65328;SDS011;51941;52.210;5.158;2024-03-25T07:05:41;7.70;;;2.28;;
65328;SDS011;51941;52.210;5.158;2024-03-25T07:08:09;9.70;;;2.20;;
65328;SDS011;51941;52.210;5.158;2024-03-25T07:10:35;12.63;;;2.38;;
65328;SDS011;51941;52.210;5.158;2024-03-25T07:13:01;6.68;;;2.15;;
65328;SDS011;51941;52.210;5.158;2024-03-25T07:15:29;11.93;;;2.65;;
65328;SDS011;51941;52.210;5.158;2024-03-25T07:17:55;11.55;;;2.10;;
65328;SDS011;51941;52.210;5.158;2024-03-25T07:20:21;8.55;;;2.20;;
65328;SDS011;51941;52.210;5.158;2024-03-25T07:22:46;12.38;;;2.30;;
65328;SDS011;51941;52.210;5.158;2024-03-25T07:25:12;14.40;;;2.10;;
65328;SDS011;51941;52.210;5.158;2024-03-25T07:27:38;12.07;;;2.53;;
65328;SDS011;51941;52.210;5.158;2024-03-25T07:30:05;11.20;;;2.60;;
65328;SDS011;51941;52.210;5.158;2024-03-25T07:32:33;13.90;;;2.10;;
65328;SDS011;51941;52.210;5.158;2024-03-25T07:34:59;16.90;;;2.28;;
65328;SDS011;51941;52.210;5.158;2024-03-25T07:37:25;14.15;;;3.10;;
65328;SDS011;51941;52.210;5.158;2024-03-25T07:39:51;10.00;;;2.25;;
65328;SDS011;51941;52.210;5.158;2024-03-25T07:42:17;9.07;;;2.15;;
65328;SDS011;51941;52.210;5.158;2024-03-25T07:44:43;10.85;;;2.58;;
65328;SDS011;51941;52.210;5.158;2024-03-25T07:47:09;8.15;;;2.60;;
65328;SDS011;51941;52.210;5.158;2024-03-25T07:49:36;15.80;;;3.50;;
65328;SDS011;51941;52.210;5.158;2024-03-25T07:52:03;10.65;;;2.30;;
65328;SDS011;51941;52.210;5.158;2024-03-25T07:54:29;13.18;;;2.83;;
65328;SDS011;51941;52.210;5.158;2024-03-25T07:56:55;9.75;;;2.25;;
65328;SDS011;51941;52.210;5.158;2024-03-25T07:59:21;9.70;;;2.35;;
65328;SDS011;51941;52.210;5.158;2024-03-25T08:01:47;8.30;;;2.30;;
65328;SDS011;51941;52.210;5.158;2024-03-25T08:04:12;15.65;;;2.83;;
65328;SDS011;51941;52.210;5.158;2024-03-25T08:06:39;17.35;;;3.15;;
65328;SDS011;51941;52.210;5.158;2024-03-25T08:09:05;14.82;;;3.60;;
65328;SDS011;51941;52.210;5.158;2024-03-25T08:11:32;11.93;;;2.20;;
65328;SDS011;51941;52.210;5.158;2024-03-25T08:13:58;11.32;;;2.47;;
65328;SDS011;51941;52.210;5.158;2024-03-25T08:16:24;10.90;;;2.90;;
65328;SDS011;51941;52.210;5.158;2024-03-25T08:18:50;11.38;;;2.70;;
65328;SDS011;51941;52.210;5.158;2024-03-25T08:21:16;11.73;;;2.72;;
65328;SDS011;51941;52.210;5.158;2024-03-25T08:23:45;18.77;;;3.55;;
65328;SDS011;51941;52.210;5.158;2024-03-25T08:26:11;14.43;;;2.28;;
65328;SDS011;51941;52.210;5.158;2024-03-25T08:28:37;10.02;;;2.67;;
65328;SDS011;51941;52.210;5.158;2024-03-25T08:31:04;8.90;;;1.80;;
65328;SDS011;51941;52.210;5.158;2024-03-25T08:33:30;10.63;;;2.20;;
65328;SDS011;51941;52.210;5.158;2024-03-25T08:35:57;12.15;;;2.00;;
65328;SDS011;51941;52.210;5.158;2024-03-25T08:38:22;14.73;;;2.90;;
65328;SDS011;51941;52.210;5.158;2024-03-25T08:40:50;15.02;;;2.42;;
65328;SDS011;51941;52.210;5.158;2024-03-25T08:43:16;12.55;;;2.20;;
65328;SDS011;51941;52.210;5.158;2024-03-25T08:45:42;9.52;;;1.92;;
65328;SDS011;51941;52.210;5.158;2024-03-25T08:48:09;12.13;;;1.55;;
65328;SDS011;51941;52.210;5.158;2024-03-25T08:50:35;14.38;;;2.03;;
65328;SDS011;51941;52.210;5.158;2024-03-25T08:53:00;10.07;;;1.63;;
65328;SDS011;51941;52.210;5.158;2024-03-25T08:55:27;6.85;;;1.75;;
65328;SDS011;51941;52.210;5.158;2024-03-25T08:57:56;8.55;;;1.33;;
65328;SDS011;51941;52.210;5.158;2024-03-25T09:00:22;14.18;;;1.65;;
65328;SDS011;51941;52.210;5.158;2024-03-25T09:02:48;14.93;;;2.30;;
65328;SDS011;51941;52.210;5.158;2024-03-25T09:05:14;8.23;;;1.65;;
65328;SDS011;51941;52.210;5.158;2024-03-25T09:07:40;10.75;;;1.45;;
65328;SDS011;51941;52.210;5.158;2024-03-25T09:10:06;12.65;;;1.95;;
65328;SDS011;51941;52.210;5.158;2024-03-25T09:12:50;6.80;;;1.50;;
65328;SDS011;51941;52.210;5.158;2024-03-25T09:15:18;7.93;;;1.83;;
65328;SDS011;51941;52.210;5.158;2024-03-25T09:17:44;8.98;;;1.83;;
65328;SDS011;51941;52.210;5.158;2024-03-25T09:20:10;12.63;;;1.60;;
65328;SDS011;51941;52.210;5.158;2024-03-25T09:22:36;13.38;;;1.77;;
65328;SDS011;51941;52.210;5.158;2024-03-25T09:25:02;8.95;;;1.13;;
65328;SDS011;51941;52.210;5.158;2024-03-25T09:27:28;13.77;;;2.65;;
65328;SDS011;51941;52.210;5.158;2024-03-25T09:29:54;12.27;;;2.08;;
65328;SDS011;51941;52.210;5.158;2024-03-25T09:32:21;9.43;;;1.70;;
65328;SDS011;51941;52.210;5.158;2024-03-25T09:34:47;13.63;;;2.92;;
65328;SDS011;51941;52.210;5.158;2024-03-25T09:37:13;11.63;;;2.30;;
65328;SDS011;51941;52.210;5.158;2024-03-25T09:39:39;8.50;;;1.88;;
65328;SDS011;51941;52.210;5.158;2024-03-25T09:42:06;9.23;;;2.13;;
65328;SDS011;51941;52.210;5.158;2024-03-25T09:44:34;5.10;;;1.45;;
65328;SDS011;51941;52.210;5.158;2024-03-25T09:47:00;13.15;;;1.70;;
65328;SDS011;51941;52.210;5.158;2024-03-25T09:49:28;10.40;;;2.17;;
65328;SDS011;51941;52.210;5.158;2024-03-25T09:51:55;11.82;;;1.83;;
65328;SDS011;51941;52.210;5.158;2024-03-25T09:54:21;8.77;;;1.50;;
65328;SDS011;51941;52.210;5.158;2024-03-25T09:56:47;11.40;;;1.60;;
65328;SDS011;51941;52.210;5.158;2024-03-25T09:59:16;12.82;;;1.88;;
65328;SDS011;51941;52.210;5.158;2024-03-25T10:01:43;9.43;;;2.13;;
65328;SDS011;51941;52.210;5.158;2024-03-25T10:04:09;6.15;;;1.42;;
65328;SDS011;51941;52.210;5.158;2024-03-25T10:06:36;4.07;;;1.23;;
65328;SDS011;51941;52.210;5.158;2024-03-25T10:09:05;6.20;;;1.65;;
65328;SDS011;51941;52.210;5.158;2024-03-25T10:11:31;11.88;;;1.90;;
65328;SDS011;51941;52.210;5.158;2024-03-25T10:13:57;11.13;;;1.90;;
65328;SDS011;51941;52.210;5.158;2024-03-25T10:16:24;6.15;;;1.55;;
65328;SDS011;51941;52.210;5.158;2024-03-25T10:18:50;6.03;;;2.17;;
65328;SDS011;51941;52.210;5.158;2024-03-25T10:21:19;8.05;;;1.67;;
65328;SDS011;51941;52.210;5.158;2024-03-25T10:23:47;13.10;;;2.45;;
65328;SDS011;51941;52.210;5.158;2024-03-25T10:26:26;5.85;;;1.73;;
65328;SDS011;51941;52.210;5.158;2024-03-25T10:28:59;7.07;;;1.90;;
65328;SDS011;51941;52.210;5.158;2024-03-25T10:31:27;13.07;;;1.80;;
65328;SDS011;51941;52.210;5.158;2024-03-25T10:33:56;7.63;;;1.60;;
65328;SDS011;51941;52.210;5.158;2024-03-25T10:36:23;9.70;;;2.00;;
65328;SDS011;51941;52.210;5.158;2024-03-25T10:38:52;14.63;;;2.72;;
65328;SDS011;51941;52.210;5.158;2024-03-25T10:41:20;11.95;;;2.15;;
65328;SDS011;51941;52.210;5.158;2024-03-25T10:43:47;7.85;;;1.83;;
65328;SDS011;51941;52.210;5.158;2024-03-25T10:46:16;8.80;;;2.30;;
65328;SDS011;51941;52.210;5.158;2024-03-25T10:48:47;10.15;;;2.20;;
65328;SDS011;51941;52.210;5.158;2024-03-25T10:51:17;12.00;;;2.47;;
65328;SDS011;51941;52.210;5.158;2024-03-25T10:53:46;12.90;;;2.97;;
65328;SDS011;51941;52.210;5.158;2024-03-25T10:56:15;5.53;;;1.90;;
65328;SDS011;51941;52.210;5.158;2024-03-25T10:58:42;10.07;;;2.17;;
65328;SDS011;51941;52.210;5.158;2024-03-25T11:01:09;9.88;;;2.42;;
65328;SDS011;51941;52.210;5.158;2024-03-25T11:03:36;9.43;;;2.05;;
65328;SDS011;51941;52.210;5.158;2024-03-25T11:06:02;6.10;;;1.33;;
65328;SDS011;51941;52.210;5.158;2024-03-25T11:08:30;7.93;;;2.10;;
65328;SDS011;51941;52.210;5.158;2024-03-25T11:10:56;11.13;;;2.85;;
65328;SDS011;51941;52.210;5.158;2024-03-25T11:13:26;12.82;;;3.17;;
65328;SDS011;51941;52.210;5.158;2024-03-25T11:15:52;7.28;;;2.42;;
65328;SDS011;51941;52.210;5.158;2024-03-25T11:18:21;11.02;;;2.85;;
65328;SDS011;51941;52.210;5.158;2024-03-25T11:20:48;9.10;;;2.75;;
65328;SDS011;51941;52.210;5.158;2024-03-25T11:23:25;11.70;;;2.65;;
65328;SDS011;51941;52.210;5.158;2024-03-25T11:25:54;7.18;;;2.63;;
65328;SDS011;51941;52.210;5.158;2024-03-25T11:28:27;9.90;;;3.20;;
65328;SDS011;51941;52.210;5.158;2024-03-25T11:30:55;8.57;;;2.67;;
65328;SDS011;51941;52.210;5.158;2024-03-25T11:33:21;10.82;;;2.47;;
65328;SDS011;51941;52.210;5.158;2024-03-25T11:35:48;13.00;;;2.55;;
65328;SDS011;51941;52.210;5.158;2024-03-25T11:38:14;6.95;;;1.63;;
65328;SDS011;51941;52.210;5.158;2024-03-25T11:40:41;6.38;;;1.90;;
65328;SDS011;51941;52.210;5.158;2024-03-25T11:43:09;8.00;;;2.25;;
65328;SDS011;51941;52.210;5.158;2024-03-25T11:45:46;4.22;;;1.50;;
65328;SDS011;51941;52.210;5.158;2024-03-25T11:48:13;7.95;;;2.47;;
65328;SDS011;51941;52.210;5.158;2024-03-25T11:50:39;7.25;;;2.00;;
65328;SDS011;51941;52.210;5.158;2024-03-25T11:53:05;8.80;;;2.65;;
65328;SDS011;51941;52.210;5.158;2024-03-25T11:55:31;10.23;;;3.47;;
65328;SDS011;51941;52.210;5.158;2024-03-25T11:57:57;8.02;;;2.72;;
65328;SDS011;51941;52.210;5.158;2024-03-25T12:00:23;7.40;;;2.88;;
65328;SDS011;51941;52.210;5.158;2024-03-25T12:02:51;11.00;;;2.80;;
65328;SDS011;51941;52.210;5.158;2024-03-25T12:05:17;11.27;;;2.95;;
65328;SDS011;51941;52.210;5.158;2024-03-25T12:07:43;7.38;;;2.90;;
65328;SDS011;51941;52.210;5.158;2024-03-25T12:10:09;9.45;;;3.28;;
65328;SDS011;51941;52.210;5.158;2024-03-25T12:12:54;7.57;;;3.00;;
65328;SDS011;51941;52.210;5.158;2024-03-25T12:15:20;9.60;;;2.83;;
65328;SDS011;51941;52.210;5.158;2024-03-25T12:17:46;8.95;;;3.53;;
65328;SDS011;51941;52.210;5.158;2024-03-25T12:20:14;7.88;;;2.83;;
65328;SDS011;51941;52.210;5.158;2024-03-25T12:22:41;9.52;;;3.13;;
65328;SDS011;51941;52.210;5.158;2024-03-25T12:25:07;6.82;;;2.92;;
65328;SDS011;51941;52.210;5.158;2024-03-25T12:27:33;7.07;;;2.88;;
65328;SDS011;51941;52.210;5.158;2024-03-25T12:30:01;6.28;;;2.75;;
65328;SDS011;51941;52.210;5.158;2024-03-25T12:32:35;10.65;;;2.97;;
65328;SDS011;51941;52.210;5.158;2024-03-25T12:35:03;7.85;;;2.80;;
65328;SDS011;51941;52.210;5.158;2024-03-25T12:37:33;6.97;;;2.63;;
65328;SDS011;51941;52.210;5.158;2024-03-25T12:40:00;6.90;;;2.20;;
65328;SDS011;51941;52.210;5.158;2024-03-25T12:42:26;7.55;;;2.15;;
65328;SDS011;51941;52.210;5.158;2024-03-25T12:44:52;5.90;;;2.03;;
65328;SDS011;51941;52.210;5.158;2024-03-25T12:47:18;5.50;;;1.85;;
65328;SDS011;51941;52.210;5.158;2024-03-25T12:49:45;6.75;;;2.08;;
65328;SDS011;51941;52.210;5.158;2024-03-25T12:52:11;6.18;;;2.20;;
65328;SDS011;51941;52.210;5.158;2024-03-25T12:54:38;7.20;;;2.78;;
65328;SDS011;51941;52.210;5.158;2024-03-25T12:57:04;6.00;;;2.20;;
65328;SDS011;51941;52.210;5.158;2024-03-25T12:59:30;6.03;;;2.15;;
65328;SDS011;51941;52.210;5.158;2024-03-25T13:01:56;7.55;;;1.83;;
65328;SDS011;51941;52.210;5.158;2024-03-25T13:04:22;6.85;;;1.80;;
65328;SDS011;51941;52.210;5.158;2024-03-25T13:06:48;7.63;;;2.03;;
65328;SDS011;51941;52.210;5.158;2024-03-25T13:09:15;11.18;;;1.92;;
65328;SDS011;51941;52.210;5.158;2024-03-25T13:11:42;8.18;;;2.00;;
65328;SDS011;51941;52.210;5.158;2024-03-25T13:14:10;6.60;;;1.95;;
65328;SDS011;51941;52.210;5.158;2024-03-25T13:16:37;4.10;;;1.52;;
65328;SDS011;51941;52.210;5.158;2024-03-25T13:19:02;6.38;;;1.95;;
65328;SDS011;51941;52.210;5.158;2024-03-25T13:21:28;4.90;;;1.60;;
65328;SDS011;51941;52.210;5.158;2024-03-25T13:23:55;7.53;;;1.90;;
65328;SDS011;51941;52.210;5.158;2024-03-25T13:26:21;8.52;;;1.85;;
65328;SDS011;51941;52.210;5.158;2024-03-25T13:28:48;5.13;;;1.55;;
65328;SDS011;51941;52.210;5.158;2024-03-25T13:31:15;6.13;;;1.30;;
65328;SDS011;51941;52.210;5.158;2024-03-25T13:33:41;3.70;;;1.10;;
65328;SDS011;51941;52.210;5.158;2024-03-25T13:36:07;7.10;;;1.52;;
65328;SDS011;51941;52.210;5.158;2024-03-25T13:38:33;5.60;;;1.40;;
65328;SDS011;51941;52.210;5.158;2024-03-25T13:40:59;5.05;;;1.17;;
65328;SDS011;51941;52.210;5.158;2024-03-25T13:43:26;4.00;;;1.20;;
65328;SDS011;51941;52.210;5.158;2024-03-25T13:45:53;9.10;;;1.90;;
65328;SDS011;51941;52.210;5.158;2024-03-25T13:48:19;5.63;;;1.42;;
65328;SDS011;51941;52.210;5.158;2024-03-25T13:50:45;4.50;;;1.58;;
65328;SDS011;51941;52.210;5.158;2024-03-25T13:53:13;8.07;;;1.58;;
65328;SDS011;51941;52.210;5.158;2024-03-25T13:55:39;4.63;;;1.80;;
65328;SDS011;51941;52.210;5.158;2024-03-25T13:58:05;4.43;;;1.42;;
65328;SDS011;51941;52.210;5.158;2024-03-25T14:00:31;11.55;;;2.60;;
65328;SDS011;51941;52.210;5.158;2024-03-25T14:02:58;7.47;;;1.85;;
65328;SDS011;51941;52.210;5.158;2024-03-25T14:05:24;5.25;;;1.70;;
65328;SDS011;51941;52.210;5.158;2024-03-25T14:07:50;8.48;;;2.33;;
65328;SDS011;51941;52.210;5.158;2024-03-25T14:10:16;8.20;;;1.98;;
65328;SDS011;51941;52.210;5.158;2024-03-25T14:12:42;10.18;;;2.08;;
65328;SDS011;51941;52.210;5.158;2024-03-25T14:15:08;6.22;;;1.67;;
65328;SDS011;51941;52.210;5.158;2024-03-25T14:17:34;6.90;;;1.88;;
65328;SDS011;51941;52.210;5.158;2024-03-25T14:20:02;7.40;;;1.77;;
65328;SDS011;51941;52.210;5.158;2024-03-25T14:22:29;5.97;;;1.88;;
65328;SDS011;51941;52.210;5.158;2024-03-25T14:24:55;6.07;;;2.05;;
65328;SDS011;51941;52.210;5.158;2024-03-25T14:27:21;8.15;;;1.77;;
65328;SDS011;51941;52.210;5.158;2024-03-25T14:29:48;4.55;;;1.33;;
65328;SDS011;51941;52.210;5.158;2024-03-25T14:32:13;6.22;;;1.95;;
65328;SDS011;51941;52.210;5.158;2024-03-25T14:34:40;5.72;;;1.67;;
65328;SDS011;51941;52.210;5.158;2024-03-25T14:37:07;4.80;;;1.90;;
65328;SDS011;51941;52.210;5.158;2024-03-25T14:39:33;5.25;;;1.70;;
65328;SDS011;51941;52.210;5.158;2024-03-25T14:41:59;4.97;;;1.55;;